Time;durP1;ratioP1;P1;durP2;ratioP2;P2;SDS_P1;SDS_P2;PMS_P1;PMS_P2;Temp;Humidity;BMP_temperature;BMP_pressure;BME280_temperature;BME280_humidity;BME280_pressure;Samples;Min_cycle;Max_cycle;Signal;HPM_P1;HPM_P2
2023/07/05 03:01:34;;;;;;;12.52;8.18;;;17.70;99.90;;;;;;5272996;23;20803;-77
2023/07/05 03:04:00;;;;;;;12.30;11.48;;;17.80;99.90;;;;;;4841666;29;20222;-77
2023/07/05 03:06:25;;;;;;;10.50;9.60;;;17.80;99.90;;;;;;4826701;29;20826;-77
2023/07/05 03:08:51;;;;;;;9.10;7.78;;;17.80;99.90;;;;;;4844891;29;20209;-77
2023/07/05 03:11:17;;;;;;;14.15;13.25;;;17.80;99.90;;;;;;4840267;29;20221;-77
2023/07/05 03:13:43;;;;;;;77.88;73.55;;;17.80;99.90;;;;;;4871240;24;20259;-71
2023/07/05 03:16:08;;;;;;;205.07;193.98;;;17.80;99.90;;;;;;4876700;29;20653;-71
2023/07/05 03:18:34;;;;;;;265.13;250.93;;;17.80;99.90;;;;;;4876076;29;20669;-71
2023/07/05 03:21:00;;;;;;;277.73;262.58;;;17.80;99.90;;;;;;4876015;29;20283;-71
2023/07/05 03:23:26;;;;;;;214.02;202.65;;;17.80;99.90;;;;;;4861573;29;20217;-71
2023/07/05 03:25:58;;;;;;;200.95;190.48;;;17.80;99.90;;;;;;4861792;29;20284;-71
2023/07/05 03:28:27;;;;;;;100.78;95.60;;;17.90;99.90;;;;;;4861129;29;20225;-72
2023/07/05 03:31:01;;;;;;;36.90;34.72;;;18.00;99.90;;;;;;4861635;29;20628;-71
2023/07/05 03:33:27;;;;;;;15.00;13.75;;;18.00;99.90;;;;;;4861094;29;20232;-72
2023/07/05 03:35:57;;;;;;;6.35;5.70;;;18.10;99.90;;;;;;4861016;29;20218;-71
2023/07/05 03:38:25;;;;;;;10.68;9.88;;;18.10;99.90;;;;;;4844796;29;20196;-72
2023/07/05 03:41:05;;;;;;;14.75;13.75;;;18.20;99.90;;;;;;4876363;29;20269;-72
2023/07/05 03:43:35;;;;;;;146.70;138.80;;;18.20;99.90;;;;;;4869548;29;20251;-72
2023/07/05 03:46:02;;;;;;;181.00;171.57;;;18.10;99.90;;;;;;4876345;29;20266;-73
2023/07/05 03:48:30;;;;;;;107.03;101.45;;;18.00;99.90;;;;;;4844082;29;20196;-73
2023/07/05 03:50:57;;;;;;;80.38;76.15;;;18.00;99.90;;;;;;4844591;29;20654;-73
2023/07/05 03:53:24;;;;;;;63.85;60.55;;;18.00;99.90;;;;;;4860580;29;20208;-73
2023/07/05 03:55:50;;;;;;;36.08;34.03;;;18.00;99.90;;;;;;4868507;29;20189;-68
2023/07/05 03:58:15;;;;;;;58.28;55.13;;;18.00;99.90;;;;;;4860300;29;20219;-68
2023/07/05 04:00:41;;;;;;;104.53;99.28;;;18.20;99.90;;;;;;4860933;29;20193;-68
2023/07/05 04:03:07;;;;;;;125.60;118.90;;;18.20;99.90;;;;;;4860912;29;20649;-66
2023/07/05 04:05:33;;;;;;;128.60;121.75;;;18.30;99.90;;;;;;4860473;29;20190;-66
2023/07/05 04:07:59;;;;;;;121.40;115.07;;;18.40;99.90;;;;;;4860119;29;20658;-66
2023/07/05 04:10:25;;;;;;;124.20;117.70;;;18.50;99.90;;;;;;4860603;29;20216;-66
2023/07/05 04:12:51;;;;;;;147.38;139.20;;;18.60;99.90;;;;;;4860415;29;20185;-65
2023/07/05 04:15:17;;;;;;;165.98;157.30;;;18.60;99.90;;;;;;4863105;29;20279;-66
2023/07/05 04:17:43;;;;;;;170.23;161.23;;;18.60;99.90;;;;;;4859308;29;20312;-66
2023/07/05 04:20:09;;;;;;;161.35;152.57;;;18.60;99.90;;;;;;4856591;29;20189;-66
2023/07/05 04:22:37;;;;;;;158.98;150.52;;;18.60;99.90;;;;;;4860489;29;20189;-65
2023/07/05 04:25:03;;;;;;;174.02;165.27;;;18.70;99.90;;;;;;4863388;29;20219;-65
2023/07/05 04:27:29;;;;;;;155.50;147.55;;;18.70;99.90;;;;;;4859724;29;20197;-65
2023/07/05 04:29:55;;;;;;;160.57;152.30;;;18.80;99.90;;;;;;4858045;29;20316;-65
2023/07/05 04:32:20;;;;;;;157.07;149.25;;;18.80;99.90;;;;;;4858966;29;20234;-66
2023/07/05 04:34:46;;;;;;;159.82;151.63;;;18.90;99.90;;;;;;4855763;29;20260;-67
2023/07/05 04:37:12;;;;;;;149.38;141.80;;;18.90;99.90;;;;;;4850610;29;20186;-67
2023/07/05 04:39:38;;;;;;;138.38;131.35;;;18.90;99.90;;;;;;4859530;29;20205;-67
2023/07/05 04:42:04;;;;;;;131.13;124.28;;;19.00;99.90;;;;;;4862977;29;20197;-67
2023/07/05 04:44:30;;;;;;;104.43;99.15;;;19.00;99.90;;;;;;4843018;29;20225;-67
2023/07/05 04:46:56;;;;;;;63.92;60.60;;;19.00;99.90;;;;;;4859372;29;20193;-67
2023/07/05 04:49:22;;;;;;;42.15;39.85;;;19.10;99.90;;;;;;4859702;29;20558;-67
2023/07/05 04:51:48;;;;;;;69.72;66.05;;;19.00;99.90;;;;;;4842967;29;20189;-67
2023/07/05 04:54:14;;;;;;;100.68;95.60;;;19.00;99.90;;;;;;4861551;29;20556;-67
2023/07/05 04:56:40;;;;;;;122.90;116.70;;;18.90;99.90;;;;;;4859596;29;20573;-66
2023/07/05 04:59:06;;;;;;;142.60;135.38;;;18.90;99.90;;;;;;4858662;29;20226;-66
2023/07/05 05:01:32;;;;;;;152.25;144.45;;;18.90;99.90;;;;;;4859315;29;20185;-66
2023/07/05 05:03:57;;;;;;;159.68;151.65;;;18.80;99.90;;;;;;4859933;29;20232;-66
2023/07/05 05:06:23;;;;;;;132.90;126.07;;;18.80;99.90;;;;;;4859433;29;20693;-66
2023/07/05 05:08:49;;;;;;;127.32;120.97;;;18.80;99.90;;;;;;4859483;29;20207;-66
2023/07/05 05:11:15;;;;;;;117.85;111.78;;;18.70;99.90;;;;;;4859483;29;20232;-67
2023/07/05 05:13:40;;;;;;;88.50;84.00;;;18.70;99.90;;;;;;4859094;29;20600;-67
2023/07/05 05:16:06;;;;;;;79.32;75.25;;;18.70;99.90;;;;;;4859429;29;20189;-67
2023/07/05 05:18:35;;;;;;;75.75;71.93;;;18.70;99.90;;;;;;4868367;29;20204;-67
2023/07/05 05:21:02;;;;;;;63.90;60.63;;;18.80;99.90;;;;;;4852403;29;20688;-67
2023/07/05 05:23:29;;;;;;;116.00;110.25;;;19.00;99.90;;;;;;4859693;29;20721;-66
2023/07/05 05:25:55;;;;;;;59.78;56.75;;;19.60;99.90;;;;;;4842653;29;20641;-67
2023/07/05 05:28:21;;;;;;;17.50;16.52;;;20.50;99.90;;;;;;4860147;29;20197;-67
2023/07/05 05:30:49;;;;;;;24.95;23.70;;;21.40;99.90;;;;;;4863408;29;20221;-67
2023/07/05 05:33:16;;;;;;;16.40;15.50;;;22.00;99.90;;;;;;4858400;29;20240;-67
2023/07/05 05:35:51;;;;;;;13.13;12.48;;;22.50;99.90;;;;;;4859279;29;20196;-67
2023/07/05 05:38:19;;;;;;;3.90;3.63;;;22.50;99.90;;;;;;4859027;29;20204;-67
2023/07/05 05:40:45;;;;;;;4.57;4.28;;;22.00;99.90;;;;;;4858093;29;20196;-67
2023/07/05 05:43:11;;;;;;;6.60;6.22;;;21.60;99.90;;;;;;4859554;29;20307;-66
2023/07/05 05:45:36;;;;;;;5.63;5.38;;;21.30;99.90;;;;;;4858533;29;20722;-66
2023/07/05 05:48:02;;;;;;;17.02;15.95;;;21.10;99.90;;;;;;4858862;29;20211;-66
2023/07/05 05:50:28;;;;;;;18.40;16.88;;;20.90;99.90;;;;;;4859086;29;20629;-67
2023/07/05 05:52:54;;;;;;;13.93;13.20;;;21.00;99.90;;;;;;4858977;29;20197;-66
2023/07/05 05:55:20;;;;;;;10.52;9.80;;;21.10;99.90;;;;;;4858644;29;20199;-66
2023/07/05 05:57:45;;;;;;;8.07;7.68;;;21.20;99.90;;;;;;4858629;29;20290;-67
2023/07/05 06:00:12;;;;;;;4.93;4.63;;;21.40;99.90;;;;;;4842064;29;20181;-66
2023/07/05 06:02:38;;;;;;;6.13;5.72;;;21.30;99.90;;;;;;4859218;29;20648;-66
2023/07/05 06:05:04;;;;;;;7.47;7.07;;;21.20;99.90;;;;;;4858854;29;20227;-66
2023/07/05 06:07:30;;;;;;;6.20;5.70;;;21.30;99.90;;;;;;4858711;29;20292;-66
2023/07/05 06:09:56;;;;;;;6.05;5.68;;;21.30;99.90;;;;;;4865352;29;20212;-67
2023/07/05 06:12:22;;;;;;;4.82;4.43;;;21.30;99.90;;;;;;4859898;29;20260;-67
2023/07/05 06:14:48;;;;;;;5.82;5.53;;;21.50;99.90;;;;;;4858297;29;20220;-67
2023/07/05 06:17:13;;;;;;;11.52;10.93;;;21.50;99.90;;;;;;4858361;29;20188;-68
2023/07/05 06:19:39;;;;;;;26.38;25.17;;;21.50;99.90;;;;;;4858774;29;20200;-68
2023/07/05 06:22:05;;;;;;;32.22;30.48;;;21.70;99.90;;;;;;4858811;29;20696;-68
2023/07/05 06:24:31;;;;;;;30.85;29.40;;;21.90;99.90;;;;;;4858411;29;20304;-68
2023/07/05 06:26:58;;;;;;;22.15;21.08;;;22.00;99.90;;;;;;4841890;29;20208;-67
2023/07/05 06:29:24;;;;;;;7.85;7.32;;;22.10;99.90;;;;;;4858469;29;20307;-68
2023/07/05 06:31:50;;;;;;;6.82;3.67;;;22.20;99.90;;;;;;4858684;29;20196;-67
2023/07/05 06:34:16;;;;;;;3.30;3.10;;;22.30;99.90;;;;;;4858608;29;20701;-68
2023/07/05 06:36:41;;;;;;;3.95;3.75;;;22.40;99.90;;;;;;4859002;29;20204;-68
2023/07/05 06:39:07;;;;;;;3.30;3.10;;;22.40;99.90;;;;;;4858159;29;20713;-69
2023/07/05 06:41:33;;;;;;;3.80;3.60;;;22.50;99.90;;;;;;4858467;29;20342;-68
2023/07/05 06:43:59;;;;;;;4.72;4.45;;;22.60;99.90;;;;;;4858626;29;20217;-68
2023/07/05 06:46:25;;;;;;;5.38;5.07;;;22.70;99.90;;;;;;4858200;29;20200;-66
2023/07/05 06:48:50;;;;;;;6.10;5.63;;;23.10;99.90;;;;;;4858016;29;20185;-66
2023/07/05 06:51:16;;;;;;;15.82;15.02;;;23.50;99.90;;;;;;4858268;29;20221;-66
2023/07/05 06:53:43;;;;;;;14.43;13.68;;;23.90;99.90;;;;;;4870950;29;20264;-66
2023/07/05 06:56:09;;;;;;;14.70;13.57;;;24.30;99.90;;;;;;4863660;29;20207;-71
2023/07/05 06:58:36;;;;;;;15.68;14.85;;;24.40;99.90;;;;;;4861577;29;20185;-72
2023/07/05 07:01:03;;;;;;;6.50;5.97;;;24.60;99.90;;;;;;4845418;29;20669;-71
2023/07/05 07:03:29;;;;;;;9.68;9.10;;;24.70;99.90;;;;;;4861778;29;20631;-72
2023/07/05 07:05:56;;;;;;;7.25;6.90;;;24.60;99.90;;;;;;4862026;29;20224;-71
2023/07/05 07:08:28;;;;;;;5.63;5.13;;;23.90;99.90;;;;;;4861592;29;20564;-71
2023/07/05 07:10:54;;;;;;;17.55;16.50;;;23.50;99.90;;;;;;4861818;29;20221;-72
2023/07/05 07:13:20;;;;;;;6.22;5.45;;;23.10;99.90;;;;;;4861372;29;20224;-72
2023/07/05 07:15:45;;;;;;;6.38;4.43;;;22.10;99.90;;;;;;4845324;29;20200;-71
2023/07/05 07:18:11;;;;;;;474.75;444.27;;;20.40;99.90;;;;;;4844855;29;20196;-73
2023/07/05 07:20:38;;;;;;;178.25;168.10;;;19.10;99.90;;;;;;4861702;29;20201;-71
2023/07/05 07:23:04;;;;;;;159.60;150.77;;;18.10;99.90;;;;;;4861515;29;20268;-71
2023/07/05 07:25:29;;;;;;;235.75;221.02;;;17.40;99.90;;;;;;4861459;29;20197;-71
2023/07/05 07:27:55;;;;;;;72.68;68.85;;;17.20;99.90;;;;;;4844431;29;20211;-71
2023/07/05 07:30:21;;;;;;;45.85;42.92;;;17.10;99.90;;;;;;4861428;29;20646;-71
2023/07/05 07:32:48;;;;;;;53.40;50.35;;;17.00;99.90;;;;;;4861676;29;20204;-71
2023/07/05 07:35:14;;;;;;;108.37;102.70;;;16.90;99.90;;;;;;4861332;29;20197;-71
2023/07/05 07:37:40;;;;;;;174.17;163.60;;;16.90;99.90;;;;;;4861005;29;20197;-72
2023/07/05 07:40:08;;;;;;;106.00;100.07;;;17.10;99.90;;;;;;4861318;29;20193;-71
2023/07/05 07:42:34;;;;;;;126.45;119.32;;;17.20;99.90;;;;;;4844670;29;20666;-71
2023/07/05 07:45:00;;;;;;;112.90;107.03;;;17.50;99.90;;;;;;4861381;29;20217;-69
2023/07/05 07:47:26;;;;;;;160.10;151.88;;;17.80;99.90;;;;;;4860999;29;20266;-69
2023/07/05 07:49:51;;;;;;;169.57;160.73;;;18.00;99.90;;;;;;4861343;29;20307;-71
2023/07/05 07:52:18;;;;;;;130.30;123.22;;;18.10;99.90;;;;;;4861155;29;20220;-69
2023/07/05 07:54:44;;;;;;;105.55;100.05;;;18.40;99.90;;;;;;4861087;29;20571;-71
2023/07/05 07:57:10;;;;;;;124.00;117.63;;;18.40;99.90;;;;;;4860453;29;20192;-69
2023/07/05 07:59:40;;;;;;;175.68;166.38;;;18.60;99.90;;;;;;4865284;29;20283;-70
2023/07/05 08:02:13;;;;;;;117.28;111.13;;;18.70;99.90;;;;;;4864263;29;20305;-71
2023/07/05 08:04:44;;;;;;;27.75;26.40;;;19.00;99.90;;;;;;4844435;29;20217;-71
2023/07/05 08:07:10;;;;;;;22.60;21.40;;;19.10;99.90;;;;;;4843763;29;20243;-70
2023/07/05 08:09:36;;;;;;;30.92;29.42;;;19.10;99.90;;;;;;4860550;29;20713;-70
2023/07/05 08:12:03;;;;;;;23.75;22.30;;;19.00;99.90;;;;;;4844443;29;20280;-70
2023/07/05 08:14:28;;;;;;;4.28;4.05;;;19.10;99.90;;;;;;4860946;29;20275;-71
2023/07/05 08:16:54;;;;;;;5.07;4.63;;;19.20;99.90;;;;;;4861215;29;20665;-71
2023/07/05 08:19:20;;;;;;;5.43;4.93;;;19.20;99.90;;;;;;4860482;29;20237;-70
2023/07/05 08:21:47;;;;;;;5.72;5.43;;;19.40;99.90;;;;;;4860581;29;20204;-70
2023/07/05 08:24:14;;;;;;;76.63;72.78;;;19.70;99.90;;;;;;4844264;29;20736;-70
2023/07/05 08:26:41;;;;;;;71.15;67.55;;;19.90;99.90;;;;;;4854009;29;20603;-70
2023/07/05 08:29:08;;;;;;;66.18;62.80;;;20.00;99.90;;;;;;4864006;29;20279;-70
2023/07/05 08:31:34;;;;;;;12.05;11.18;;;20.10;99.90;;;;;;4844510;29;20220;-71
2023/07/05 08:34:01;;;;;;;11.85;10.98;;;20.10;99.90;;;;;;4860387;29;20216;-71
2023/07/05 08:36:35;;;;;;;37.58;35.33;;;20.10;99.90;;;;;;4860339;29;20208;-71
2023/07/05 08:39:03;;;;;;;25.63;24.23;;;19.90;99.90;;;;;;4859772;29;20683;-71
2023/07/05 08:41:32;;;;;;;22.40;21.23;;;19.40;99.90;;;;;;4860100;29;20658;-71
2023/07/05 08:44:19;;;;;;;68.10;64.68;;;19.00;99.90;;;;;;4867835;29;20736;-71
2023/07/05 08:47:11;;;;;;;15.20;14.35;;;18.60;99.90;;;;;;4860184;29;20201;-71
2023/07/05 08:49:46;;;;;;;19.67;18.33;;;18.10;99.90;;;;;;4838623;29;20692;-70
2023/07/05 08:52:42;;;;;;;52.20;49.60;;;17.80;99.90;;;;;;4860063;29;20483;-71
2023/07/05 08:55:13;;;;;;;57.03;54.17;;;17.60;99.90;;;;;;4843304;29;20197;-70
2023/07/05 08:57:46;;;;;;;17.63;16.70;;;17.40;99.90;;;;;;4843415;29;20197;-70
2023/07/05 09:00:16;;;;;;;12.27;11.57;;;17.30;99.90;;;;;;4843479;29;20287;-69
2023/07/05 09:02:42;;;;;;;23.20;21.97;;;17.00;99.90;;;;;;4859857;29;20189;-70
2023/07/05 09:05:43;;;;;;;68.60;65.00;;;16.90;99.90;;;;;;4859604;29;20571;-71
2023/07/05 09:08:48;;;;;;;50.33;47.43;;;16.90;99.90;;;;;;4858595;29;20697;-70
2023/07/05 09:11:47;;;;;;;193.57;182.50;;;16.80;99.90;;;;;;4857975;29;20678;-70
2023/07/05 09:14:53;;;;;;;266.93;251.50;;;16.80;99.90;;;;;;4864768;23;20292;-69
2023/07/05 09:17:28;;;;;;;220.70;208.23;;;16.80;99.90;;;;;;4856363;29;20609;-68
2023/07/05 09:20:36;;;;;;;202.83;191.90;;;16.90;99.90;;;;;;4874241;29;20230;-69
2023/07/05 09:23:09;;;;;;;208.87;197.33;;;17.20;99.90;;;;;;4877800;29;20677;-69
2023/07/05 09:25:38;;;;;;;269.67;253.33;;;17.30;99.90;;;;;;4882196;29;20616;-69
2023/07/05 09:28:18;;;;;;;283.10;266.10;;;17.50;99.90;;;;;;4859219;29;20202;-69
2023/07/05 09:30:45;;;;;;;22.40;20.80;;;17.70;99.90;;;;;;4859522;29;20225;-69
2023/07/05 09:33:16;;;;;;;13.27;12.48;;;18.00;99.90;;;;;;4859347;29;20269;-69
2023/07/05 09:35:45;;;;;;;17.45;16.35;;;18.30;99.90;;;;;;4859526;29;20220;-69
2023/07/05 09:38:24;;;;;;;27.35;25.67;;;18.70;99.90;;;;;;4858763;29;20258;-69
2023/07/05 09:41:06;;;;;;;48.60;46.03;;;19.00;99.90;;;;;;4859359;29;20195;-68
2023/07/05 09:43:34;;;;;;;79.70;75.65;;;19.20;99.90;;;;;;4859438;29;20222;-68
2023/07/05 09:46:06;;;;;;;72.45;68.85;;;19.50;99.90;;;;;;4859463;29;20200;-68
2023/07/05 09:48:44;;;;;;;11.80;10.95;;;20.20;99.90;;;;;;4859470;29;20540;-69
2023/07/05 09:51:11;;;;;;;46.95;44.33;;;20.60;99.90;;;;;;4858959;29;20228;-70
2023/07/05 09:53:54;;;;;;;139.07;132.10;;;20.60;99.90;;;;;;4859189;29;20185;-69
2023/07/05 09:56:27;;;;;;;77.10;73.15;;;20.60;99.90;;;;;;4859104;29;20216;-69
2023/07/05 09:59:12;;;;;;;69.07;65.55;;;20.80;99.90;;;;;;4859156;29;20601;-69
2023/07/05 10:01:42;;;;;;;22.02;20.85;;;21.10;99.90;;;;;;4859263;29;20630;-69
2023/07/05 10:04:08;;;;;;;33.63;31.70;;;21.40;99.90;;;;;;4859238;29;20217;-69
2023/07/05 10:06:39;;;;;;;17.92;17.00;;;22.10;99.90;;;;;;4858781;29;20555;-69
2023/07/05 10:09:15;;;;;;;14.98;14.15;;;22.80;99.90;;;;;;4857280;29;20201;-70
2023/07/05 10:11:47;;;;;;;26.73;25.33;;;23.80;99.90;;;;;;4859056;29;20303;-69
2023/07/05 10:14:14;;;;;;;12.60;11.50;;;24.50;99.90;;;;;;4858520;29;20228;-69
2023/07/05 10:16:46;;;;;;;18.15;17.05;;;25.00;99.90;;;;;;4858843;29;20320;-69
2023/07/05 10:19:33;;;;;;;9.57;8.85;;;25.60;99.90;;;;;;4858313;29;20222;-65
2023/07/05 10:22:12;;;;;;;10.52;9.95;;;25.90;99.90;;;;;;4854461;29;20196;-65
2023/07/05 10:24:45;;;;;;;14.27;13.52;;;26.00;99.90;;;;;;4865924;29;20209;-66
2023/07/05 10:27:32;;;;;;;15.63;14.63;;;26.00;99.90;;;;;;4858266;29;20193;-66
2023/07/05 10:30:12;;;;;;;9.27;8.77;;;25.30;99.90;;;;;;4858502;29;20212;-65
2023/07/05 10:32:43;;;;;;;9.68;9.18;;;24.80;99.90;;;;;;4857340;29;20283;-66
2023/07/05 10:35:29;;;;;;;8.77;8.18;;;24.40;99.90;;;;;;4857910;29;20268;-65
2023/07/05 10:37:55;;;;;;;8.45;8.02;;;24.50;99.90;;;;;;4858091;29;20192;-65
2023/07/05 10:40:23;;;;;;;11.00;10.40;;;24.90;99.90;;;;;;4858472;29;20193;-65
2023/07/05 10:42:54;;;;;;;14.68;13.80;;;25.60;99.90;;;;;;4858530;29;20193;-65
2023/07/05 10:45:22;;;;;;;22.17;20.83;;;25.80;99.90;;;;;;4858144;29;20217;-66
2023/07/05 10:47:52;;;;;;;21.40;20.23;;;26.50;99.90;;;;;;4858088;29;20546;-66
2023/07/05 10:50:29;;;;;;;18.88;17.85;;;26.60;99.90;;;;;;4858137;29;20213;-66
2023/07/05 10:53:01;;;;;;;42.90;40.55;;;25.70;99.90;;;;;;4858953;29;20197;-65
2023/07/05 10:55:48;;;;;;;73.32;69.25;;;25.20;99.90;;;;;;4856583;29;20253;-66
2023/07/05 10:58:18;;;;;;;54.60;51.72;;;25.10;99.90;;;;;;4857900;29;20708;-66
2023/07/05 11:01:13;;;;;;;53.22;50.15;;;25.40;99.90;;;;;;4858427;29;20569;-66
2023/07/05 11:03:51;;;;;;;13.77;12.95;;;26.00;99.90;;;;;;4858023;29;20605;-65
2023/07/05 11:06:17;;;;;;;7.18;6.57;;;26.40;99.90;;;;;;4857795;29;20197;-65
2023/07/05 11:08:47;;;;;;;5.97;5.53;;;26.00;98.90;;;;;;4858611;29;20223;-67
2023/07/05 11:11:20;;;;;;;6.03;5.50;;;26.20;99.60;;;;;;4858353;29;20267;-66
2023/07/05 11:13:48;;;;;;;9.25;8.63;;;26.40;99.90;;;;;;4858343;29;20197;-66
2023/07/05 11:16:28;;;;;;;8.88;8.15;;;26.70;97.50;;;;;;4858873;29;20217;-65
2023/07/05 11:19:06;;;;;;;7.90;7.47;;;26.30;97.30;;;;;;4857198;29;20188;-66
2023/07/05 11:21:44;;;;;;;11.55;10.85;;;26.30;96.30;;;;;;4858072;29;20196;-65
2023/07/05 11:24:25;;;;;;;44.40;42.05;;;26.50;95.90;;;;;;4858144;29;20889;-65
2023/07/05 11:26:51;;;;;;;52.15;48.78;;;26.80;93.60;;;;;;4857879;29;20195;-65
2023/07/05 11:29:32;;;;;;;13.40;12.63;;;27.80;93.70;;;;;;4857871;29;20197;-66
2023/07/05 11:32:03;;;;;;;12.45;11.68;;;28.50;88.80;;;;;;4857937;29;20193;-66
2023/07/05 11:34:31;;;;;;;14.25;13.38;;;27.70;87.10;;;;;;4858102;29;20590;-66
2023/07/05 11:37:06;;;;;;;16.70;15.55;;;27.20;88.00;;;;;;4857644;29;20196;-66
2023/07/05 11:39:33;;;;;;;13.05;12.32;;;26.90;89.60;;;;;;4858177;29;20204;-65
2023/07/05 11:42:15;;;;;;;13.57;12.77;;;27.20;84.60;;;;;;4858086;29;20192;-66
2023/07/05 11:44:53;;;;;;;13.20;12.40;;;27.10;83.30;;;;;;4861278;29;20217;-65
2023/07/05 11:47:21;;;;;;;12.40;11.27;;;27.30;83.30;;;;;;4860724;29;20200;-66
2023/07/05 11:50:01;;;;;;;11.27;10.50;;;27.40;82.20;;;;;;4861119;29;20279;-65
2023/07/05 11:52:30;;;;;;;7.60;7.18;;;27.60;81.40;;;;;;4861209;29;20205;-75
2023/07/05 11:54:58;;;;;;;8.68;7.85;;;27.60;78.40;;;;;;4861077;29;20694;-75
2023/07/05 11:57:26;;;;;;;8.18;7.57;;;27.70;75.30;;;;;;4859959;29;20654;-76
2023/07/05 12:00:12;;;;;;;4.70;4.40;;;27.90;73.60;;;;;;4861625;29;20189;-76
2023/07/05 12:03:14;;;;;;;5.10;4.70;;;28.10;72.60;;;;;;4854902;29;20201;-75
2023/07/05 12:05:42;;;;;;;4.82;4.53;;;27.70;70.80;;;;;;4861125;29;20304;-76
2023/07/05 12:08:15;;;;;;;5.18;4.30;;;28.00;69.20;;;;;;4859842;29;20556;-75
2023/07/05 12:10:54;;;;;;;5.68;4.05;;;28.00;69.20;;;;;;4861093;29;20601;-76
2023/07/05 12:13:25;;;;;;;5.28;4.38;;;27.90;69.30;;;;;;4860805;29;20196;-75
2023/07/05 12:15:53;;;;;;;4.57;4.18;;;28.30;68.00;;;;;;4859347;29;20221;-75
2023/07/05 12:18:20;;;;;;;4.28;3.90;;;27.80;64.50;;;;;;4860390;29;20189;-76
2023/07/05 12:20:54;;;;;;;4.38;3.97;;;27.80;66.30;;;;;;4860748;29;20224;-75
2023/07/05 12:23:23;;;;;;;6.72;5.05;;;28.00;65.20;;;;;;4859687;29;20251;-75
2023/07/05 12:25:53;;;;;;;5.68;5.28;;;27.80;65.80;;;;;;4859425;29;20224;-76
2023/07/05 12:28:25;;;;;;;7.60;6.40;;;27.90;67.30;;;;;;4860276;29;20201;-76
2023/07/05 12:30:59;;;;;;;6.00;5.47;;;28.50;64.30;;;;;;4858936;29;20209;-76
2023/07/05 12:33:34;;;;;;;5.40;4.93;;;28.50;63.90;;;;;;4860444;29;20198;-76
2023/07/05 12:36:11;;;;;;;6.95;6.10;;;28.50;62.40;;;;;;4860496;29;20241;-76
2023/07/05 12:38:41;;;;;;;5.60;5.10;;;28.30;63.20;;;;;;4858955;29;20201;-75
2023/07/05 12:41:15;;;;;;;5.95;4.80;;;27.90;64.10;;;;;;4860355;29;20192;-76
2023/07/05 12:43:41;;;;;;;6.22;5.60;;;27.70;62.40;;;;;;4860177;29;20195;-75
2023/07/05 12:46:12;;;;;;;5.82;5.32;;;27.60;64.10;;;;;;4860223;29;20193;-75
2023/07/05 12:48:38;;;;;;;5.32;4.82;;;27.70;64.90;;;;;;4858532;29;20225;-74
2023/07/05 12:51:10;;;;;;;4.22;3.90;;;28.20;65.10;;;;;;4860243;29;20601;-74
2023/07/05 12:53:36;;;;;;;4.90;4.60;;;28.60;63.20;;;;;;4859917;29;20636;-74
2023/07/05 12:56:08;;;;;;;6.68;4.85;;;28.60;62.80;;;;;;4860194;29;20225;-74
2023/07/05 12:58:35;;;;;;;6.22;5.82;;;28.80;62.30;;;;;;4859273;29;20182;-74
2023/07/05 13:01:01;;;;;;;5.80;5.35;;;28.30;62.50;;;;;;4859787;29;20575;-74
2023/07/05 13:03:30;;;;;;;4.63;4.32;;;28.10;61.50;;;;;;4860050;29;20251;-74
2023/07/05 13:05:58;;;;;;;5.25;4.80;;;28.00;62.00;;;;;;4860125;29;20193;-75
2023/07/05 13:08:28;;;;;;;4.82;4.43;;;28.30;61.10;;;;;;4858404;29;20572;-75
2023/07/05 13:10:54;;;;;;;5.22;4.93;;;28.60;60.70;;;;;;4859409;29;20224;-75
2023/07/05 13:13:33;;;;;;;5.78;5.47;;;28.70;59.10;;;;;;4859942;29;20177;-75
2023/07/05 13:16:18;;;;;;;5.38;4.90;;;28.40;58.80;;;;;;4859940;29;20208;-75
2023/07/05 13:19:02;;;;;;;7.03;5.40;;;28.40;59.80;;;;;;4859252;29;20189;-75
2023/07/05 13:21:43;;;;;;;5.40;5.00;;;27.90;58.80;;;;;;4859517;29;20280;-76
2023/07/05 13:24:17;;;;;;;4.90;4.53;;;27.90;59.20;;;;;;4858253;29;20220;-75
2023/07/05 13:26:45;;;;;;;5.00;4.55;;;28.20;58.50;;;;;;4859471;29;20205;-75
2023/07/05 13:29:20;;;;;;;5.03;4.63;;;28.60;57.30;;;;;;4858856;29;20185;-76
2023/07/05 13:31:48;;;;;;;4.55;4.25;;;28.40;57.60;;;;;;4859419;29;20284;-75
2023/07/05 13:34:15;;;;;;;4.13;3.92;;;28.30;56.50;;;;;;4857940;29;20716;-75
2023/07/05 13:36:42;;;;;;;4.88;3.30;;;27.90;55.80;;;;;;4859153;29;20228;-76
2023/07/05 13:39:17;;;;;;;8.23;3.67;;;27.90;56.60;;;;;;4858941;29;20200;-76
2023/07/05 13:41:44;;;;;;;5.25;3.97;;;28.30;56.80;;;;;;4857987;29;20673;-75
2023/07/05 13:44:17;;;;;;;5.20;3.45;;;28.50;55.20;;;;;;4870811;29;20244;-75
2023/07/05 13:46:43;;;;;;;4.05;3.75;;;28.30;55.90;;;;;;4857945;29;20193;-75
2023/07/05 13:49:09;;;;;;;3.78;3.58;;;28.20;55.40;;;;;;4857587;29;20189;-75
2023/07/05 13:51:39;;;;;;;4.35;3.83;;;28.30;55.30;;;;;;4857997;29;20224;-76
2023/07/05 13:54:05;;;;;;;3.83;3.63;;;27.80;55.70;;;;;;4859211;29;20232;-75
2023/07/05 13:56:30;;;;;;;10.32;9.20;;;27.80;56.20;;;;;;4858905;29;20228;-75
2023/07/05 13:58:56;;;;;;;7.40;6.88;;;27.50;56.70;;;;;;4858949;29;20189;-75
2023/07/05 14:01:22;;;;;;;8.60;7.88;;;27.60;56.20;;;;;;4858994;29;20682;-76
2023/07/05 14:03:49;;;;;;;5.82;5.40;;;27.90;56.70;;;;;;4867014;29;20204;-76
2023/07/05 14:06:23;;;;;;;5.82;4.38;;;28.50;55.90;;;;;;4859158;29;20666;-77
2023/07/05 14:08:49;;;;;;;3.55;3.35;;;28.70;54.90;;;;;;4859403;29;20197;-75
2023/07/05 14:11:27;;;;;;;3.90;3.67;;;28.80;55.00;;;;;;4858870;29;20808;-75
2023/07/05 14:13:55;;;;;;;4.00;3.80;;;29.30;53.70;;;;;;4858725;29;20301;-77
2023/07/05 14:16:21;;;;;;;4.75;3.70;;;29.30;53.30;;;;;;4857737;29;20280;-75
2023/07/05 14:18:48;;;;;;;3.47;3.35;;;29.30;53.80;;;;;;4857623;29;20189;-78
2023/07/05 14:21:32;;;;;;;4.85;4.35;;;29.50;53.30;;;;;;4858833;29;20204;-76
2023/07/05 14:24:03;;;;;;;4.57;4.18;;;28.90;53.20;;;;;;4857534;29;20221;-76
2023/07/05 14:26:32;;;;;;;9.65;7.35;;;28.70;53.60;;;;;;4858757;29;20681;-76
2023/07/05 14:28:59;;;;;;;7.00;5.95;;;29.00;53.70;;;;;;4858150;29;20666;-76
2023/07/05 14:31:25;;;;;;;4.20;3.88;;;28.90;52.50;;;;;;4858383;29;20228;-76
2023/07/05 14:33:51;;;;;;;3.88;3.67;;;28.90;52.40;;;;;;4858787;29;20216;-75
2023/07/05 14:36:18;;;;;;;4.25;3.95;;;28.70;52.90;;;;;;4858442;29;20577;-75
2023/07/05 14:38:45;;;;;;;4.53;3.45;;;28.90;53.30;;;;;;4858194;29;20589;-74
2023/07/05 14:41:23;;;;;;;5.60;3.38;;;28.90;53.10;;;;;;4864241;29;20188;-75
2023/07/05 14:43:53;;;;;;;3.58;3.33;;;28.90;53.30;;;;;;4858179;29;20193;-76
2023/07/05 14:46:20;;;;;;;3.25;3.05;;;29.30;53.20;;;;;;4858209;29;20201;-76
2023/07/05 14:48:45;;;;;;;3.55;3.35;;;29.50;52.50;;;;;;4858102;29;20221;-76
2023/07/05 14:51:17;;;;;;;3.45;3.25;;;29.10;52.20;;;;;;4856777;29;20209;-76
2023/07/05 14:53:45;;;;;;;3.22;3.03;;;28.90;52.70;;;;;;4858057;29;20200;-75
2023/07/05 14:56:11;;;;;;;5.35;3.50;;;28.70;52.00;;;;;;4858049;29;20264;-76
2023/07/05 14:58:37;;;;;;;3.20;3.10;;;28.50;52.90;;;;;;4857413;29;20185;-76
2023/07/05 15:01:06;;;;;;;3.58;3.38;;;28.80;52.50;;;;;;4860725;29;20195;-79
2023/07/05 15:03:33;;;;;;;5.18;3.75;;;29.30;53.40;;;;;;4864632;29;20215;-79
2023/07/05 15:06:02;;;;;;;7.30;3.35;;;29.20;51.80;;;;;;4862597;29;20221;-80
2023/07/05 15:08:29;;;;;;;3.63;3.08;;;29.30;52.40;;;;;;4863471;29;20247;-79
2023/07/05 15:10:55;;;;;;;4.30;3.15;;;28.90;52.20;;;;;;4862780;29;20217;-80
2023/07/05 15:13:27;;;;;;;3.50;3.13;;;29.10;53.40;;;;;;4862247;29;20685;-79
2023/07/05 15:15:53;;;;;;;4.78;3.28;;;29.30;51.90;;;;;;4891442;23;20260;-76
2023/07/05 15:18:18;;;;;;;4.07;3.78;;;28.90;52.90;;;;;;4877325;29;20669;-76
2023/07/05 15:20:44;;;;;;;4.55;3.38;;;28.50;53.10;;;;;;4866534;29;20228;-77
2023/07/05 15:23:10;;;;;;;5.70;3.67;;;28.20;53.40;;;;;;4878003;29;20219;-77
2023/07/05 15:25:36;;;;;;;3.83;3.53;;;28.30;53.20;;;;;;4871080;29;20296;-76
2023/07/05 15:28:05;;;;;;;3.92;3.30;;;28.30;52.70;;;;;;4860794;29;20654;-77
2023/07/05 15:30:31;;;;;;;4.07;3.60;;;28.10;53.80;;;;;;4844973;29;20224;-77
2023/07/05 15:32:57;;;;;;;3.85;3.55;;;27.60;53.70;;;;;;4861696;29;20193;-67
2023/07/05 15:35:25;;;;;;;3.95;3.70;;;27.80;54.80;;;;;;4855957;29;20229;-66
2023/07/05 15:37:51;;;;;;;3.75;3.50;;;27.90;53.90;;;;;;4862547;29;20185;-68
2023/07/05 15:40:18;;;;;;;3.83;3.63;;;28.00;54.40;;;;;;4860981;29;20197;-68
2023/07/05 15:42:45;;;;;;;4.93;4.00;;;28.40;54.50;;;;;;4844659;29;20734;-66
2023/07/05 15:45:12;;;;;;;5.60;3.92;;;28.20;54.80;;;;;;4860757;29;20216;-69
2023/07/05 15:47:37;;;;;;;4.82;4.20;;;28.20;55.20;;;;;;4860889;29;20197;-68